createdAt,value
2019-04-29T00:00:51.180Z,16.45
2019-04-29T00:03:23.367Z,9.45
2019-04-29T00:05:55.283Z,17.80
2019-04-29T00:08:27.640Z,9.08
2019-04-29T00:10:58.865Z,8.73
2019-04-29T00:13:30.152Z,9.33
2019-04-29T00:16:29.447Z,16.97
2019-04-29T00:19:18.694Z,18.32
2019-04-29T00:21:50.708Z,11.18
2019-04-29T00:24:21.924Z,14.63
2019-04-29T00:26:53.223Z,18.77
2019-04-29T00:29:24.906Z,20.57
2019-04-29T00:31:56.489Z,7.60
2019-04-29T00:34:29.243Z,13.10
2019-04-29T00:37:14.347Z,9.00
2019-04-29T00:40:03.887Z,21.57
2019-04-29T00:42:54.156Z,20.68
2019-04-29T00:45:26.317Z,14.53
2019-04-29T00:47:58.481Z,22.77
2019-04-29T00:50:29.846Z,13.20
2019-04-29T00:53:01.254Z,25.70
2019-04-29T00:55:33.612Z,24.32
2019-04-29T00:58:04.856Z,21.70
2019-04-29T01:00:40.638Z,23.10
2019-04-29T01:03:11.965Z,22.37
2019-04-29T01:05:43.451Z,25.30
2019-04-29T01:08:15.552Z,20.75
2019-04-29T01:10:47.071Z,27.15
2019-04-29T01:13:18.308Z,25.57
2019-04-29T01:15:49.670Z,25.97
2019-04-29T01:18:21.048Z,26.55
2019-04-29T01:20:52.187Z,27.15
2019-04-29T01:23:23.768Z,29.57
2019-04-29T01:25:58.864Z,29.30
2019-04-29T01:28:49.485Z,26.48
2019-04-29T01:31:26.942Z,26.33
2019-04-29T01:34:03.528Z,28.10
2019-04-29T01:36:39.427Z,35.33
2019-04-29T01:39:12.472Z,25.65
2019-04-29T01:41:57.829Z,33.02
2019-04-29T01:44:30.902Z,32.93
2019-04-29T01:47:02.192Z,31.93
2019-04-29T01:49:33.562Z,31.90
2019-04-29T01:52:04.712Z,17.57
2019-04-29T01:54:35.890Z,17.90
2019-04-29T01:57:07.086Z,35.70
2019-04-29T01:59:38.371Z,33.10
2019-04-29T02:02:09.572Z,34.15
2019-04-29T02:04:43.834Z,37.03
2019-04-29T02:07:14.978Z,38.38
2019-04-29T02:10:08.609Z,39.83
2019-04-29T02:12:39.801Z,42.75
2019-04-29T02:15:11.482Z,35.13
2019-04-29T02:17:42.704Z,39.20
2019-04-29T02:20:14.384Z,37.75
2019-04-29T02:23:12.713Z,31.82
2019-04-29T02:25:45.500Z,43.63
2019-04-29T02:28:16.693Z,39.33
2019-04-29T02:30:50.190Z,32.05
2019-04-29T02:33:21.589Z,37.40
2019-04-29T02:35:53.183Z,43.20
2019-04-29T02:38:49.508Z,38.20
2019-04-29T02:41:39.725Z,44.25
2019-04-29T02:44:12.053Z,40.03
2019-04-29T02:46:43.237Z,36.80
2019-04-29T02:49:14.479Z,21.73
2019-04-29T02:51:52.671Z,40.67
2019-04-29T02:54:25.623Z,36.17
2019-04-29T02:57:08.908Z,39.45
2019-04-29T02:59:44.041Z,27.67
2019-04-29T03:02:32.924Z,43.02
2019-04-29T03:05:16.097Z,35.23
2019-04-29T03:07:47.369Z,26.42
2019-04-29T03:10:18.677Z,42.60
2019-04-29T03:12:49.937Z,44.03
2019-04-29T03:15:31.816Z,45.12
2019-04-29T03:18:03.550Z,49.63
2019-04-29T03:20:45.330Z,45.12
2019-04-29T03:23:18.723Z,42.03
2019-04-29T03:25:49.995Z,42.30
2019-04-29T03:28:21.559Z,39.45
2019-04-29T03:30:52.723Z,43.20
2019-04-29T03:33:36.921Z,45.58
2019-04-29T03:36:08.128Z,40.40
2019-04-29T03:38:39.376Z,43.28
2019-04-29T03:41:10.973Z,45.35
2019-04-29T03:43:42.762Z,38.70
2019-04-29T03:46:13.874Z,42.50
2019-04-29T03:48:45.117Z,42.40
2019-04-29T03:51:16.259Z,38.83
2019-04-29T03:53:47.436Z,34.50
2019-04-29T03:56:19.097Z,41.18
2019-04-29T03:58:50.237Z,39.33
2019-04-29T04:01:30.016Z,33.80
2019-04-29T04:04:06.267Z,30.85
2019-04-29T04:06:48.546Z,36.25
2019-04-29T04:09:25.285Z,45.08
2019-04-29T04:11:56.519Z,40.63
2019-04-29T04:14:28.125Z,28.70
2019-04-29T04:17:12.517Z,36.77
2019-04-29T04:19:43.769Z,39.88
2019-04-29T04:22:14.903Z,45.75
2019-04-29T04:24:46.422Z,35.48
2019-04-29T04:27:17.963Z,35.92
2019-04-29T04:29:49.622Z,37.28
2019-04-29T04:32:20.784Z,34.78
2019-04-29T04:34:52.297Z,23.47
2019-04-29T04:37:24.217Z,27.45
2019-04-29T04:39:56.233Z,31.87
2019-04-29T04:42:29.813Z,23.52
2019-04-29T04:45:00.788Z,26.05
2019-04-29T04:47:32.060Z,21.90
2019-04-29T04:50:03.784Z,21.02
2019-04-29T04:52:34.981Z,32.58
2019-04-29T04:55:06.534Z,30.88
2019-04-29T04:57:37.962Z,34.55
2019-04-29T05:00:14.603Z,21.27
2019-04-29T05:02:46.108Z,29.02
2019-04-29T05:05:17.560Z,24.45
2019-04-29T05:07:50.173Z,34.58
2019-04-29T05:10:21.365Z,26.35
2019-04-29T05:12:52.601Z,25.17
2019-04-29T05:15:24.986Z,30.97
2019-04-29T05:17:56.286Z,32.35
2019-04-29T05:20:27.754Z,18.65
2019-04-29T05:23:02.020Z,22.55
2019-04-29T05:25:34.836Z,30.45
2019-04-29T05:28:06.857Z,32.42
2019-04-29T05:30:38.708Z,27.62
2019-04-29T05:33:10.398Z,31.65
2019-04-29T05:36:03.936Z,35.95
2019-04-29T05:39:00.328Z,23.85
2019-04-29T05:41:34.716Z,31.68
2019-04-29T05:44:26.965Z,28.80
2019-04-29T05:47:02.580Z,24.98
2019-04-29T05:49:41.640Z,28.17
2019-04-29T05:52:30.161Z,32.30
2019-04-29T05:55:02.096Z,27.15
2019-04-29T05:57:33.373Z,30.92
2019-04-29T06:00:05.006Z,32.70
2019-04-29T06:02:38.867Z,31.37
2019-04-29T06:05:09.819Z,32.10
2019-04-29T06:07:41.100Z,33.33
2019-04-29T06:10:23.015Z,33.85
2019-04-29T06:12:51.763Z,32.10
2019-04-29T06:15:23.097Z,26.77
2019-04-29T06:17:54.361Z,34.98
2019-04-29T06:20:25.623Z,26.52
2019-04-29T06:22:57.325Z,35.40
2019-04-29T06:25:28.672Z,36.23
2019-04-29T06:28:00.796Z,23.07
2019-04-29T06:30:32.120Z,31.90
2019-04-29T06:33:03.316Z,32.60
2019-04-29T06:35:34.657Z,34.75
2019-04-29T06:38:07.068Z,32.42
2019-04-29T06:40:39.333Z,31.90
2019-04-29T06:43:10.952Z,25.90
2019-04-29T06:45:42.766Z,36.68
2019-04-29T06:48:13.943Z,28.52
2019-04-29T06:50:45.739Z,21.40
2019-04-29T06:53:21.263Z,29.07
2019-04-29T06:55:49.776Z,18.10
2019-04-29T06:58:21.580Z,18.98
2019-04-29T07:00:55.955Z,18.00
2019-04-29T07:03:26.710Z,22.42
2019-04-29T07:05:58.071Z,29.00
2019-04-29T07:08:29.204Z,22.15
2019-04-29T07:11:02.973Z,30.15
2019-04-29T07:13:34.281Z,31.73
2019-04-29T07:16:05.498Z,27.07
2019-04-29T07:18:41.320Z,32.53
2019-04-29T07:21:13.099Z,29.20
2019-04-29T07:23:44.598Z,30.08
2019-04-29T07:26:15.852Z,26.10
2019-04-29T07:28:48.762Z,26.73
2019-04-29T07:31:21.498Z,26.25
2019-04-29T07:33:53.598Z,28.30
2019-04-29T07:36:25.785Z,15.78
2019-04-29T07:38:57.397Z,31.10
2019-04-29T07:41:28.529Z,21.42
2019-04-29T07:43:59.757Z,24.45
2019-04-29T07:46:56.274Z,27.70
2019-04-29T07:49:19.880Z,28.90
2019-04-29T07:51:51.706Z,27.15
2019-04-29T07:54:23.444Z,33.65
2019-04-29T07:56:55.051Z,33.85
2019-04-29T07:59:26.760Z,27.85
2019-04-29T08:01:59.761Z,30.72
2019-04-29T08:04:32.109Z,26.85
2019-04-29T08:07:04.932Z,34.08
2019-04-29T08:09:44.186Z,29.75
2019-04-29T08:12:22.252Z,31.50
2019-04-29T08:14:58.617Z,29.65
2019-04-29T08:17:30.005Z,24.60
2019-04-29T08:20:05.151Z,25.23
2019-04-29T08:22:35.225Z,22.60
2019-04-29T08:25:06.742Z,27.48
2019-04-29T08:27:40.827Z,28.23
2019-04-29T08:30:12.694Z,24.72
2019-04-29T08:32:44.326Z,16.85
2019-04-29T08:35:15.784Z,17.62
2019-04-29T08:37:47.176Z,29.65
2019-04-29T08:40:19.119Z,29.20
2019-04-29T08:42:58.471Z,21.60
2019-04-29T08:45:55.311Z,24.87
2019-04-29T08:48:26.775Z,22.02
2019-04-29T08:50:58.415Z,26.10
2019-04-29T08:53:30.234Z,29.52
2019-04-29T08:56:21.625Z,33.25
2019-04-29T08:58:52.972Z,30.62
2019-04-29T09:01:29.155Z,26.57
2019-04-29T09:04:05.135Z,14.20
2019-04-29T09:06:37.738Z,32.65
2019-04-29T09:09:27.951Z,32.98
2019-04-29T09:11:43.565Z,29.75
2019-04-29T09:14:18.168Z,33.55
2019-04-29T09:16:49.440Z,35.68
2019-04-29T09:19:20.776Z,30.48
2019-04-29T09:21:56.191Z,22.82
2019-04-29T09:24:28.563Z,30.57
2019-04-29T09:27:14.611Z,34.10
2019-04-29T09:29:46.798Z,36.40
2019-04-29T09:32:18.451Z,23.75
2019-04-29T09:34:49.929Z,18.85
2019-04-29T09:37:23.049Z,33.80
2019-04-29T09:39:54.852Z,34.08
2019-04-29T09:42:37.837Z,22.73
2019-04-29T09:45:28.612Z,31.15
2019-04-29T09:48:00.487Z,27.52
2019-04-29T09:50:34.126Z,30.10
2019-04-29T09:53:05.614Z,28.07
2019-04-29T09:55:39.935Z,23.27
2019-04-29T09:58:11.341Z,33.60
2019-04-29T10:01:04.792Z,38.00
2019-04-29T10:04:13.334Z,38.38
2019-04-29T10:06:45.363Z,27.77
2019-04-29T10:09:17.129Z,37.63
2019-04-29T10:11:49.288Z,33.13
2019-04-29T10:14:20.975Z,24.07
2019-04-29T10:17:18.092Z,36.55
2019-04-29T10:20:12.590Z,35.70
2019-04-29T10:22:44.080Z,27.25
2019-04-29T10:25:16.003Z,28.02
2019-04-29T10:27:48.030Z,38.28
2019-04-29T10:33:17.537Z,28.45
2019-04-29T10:35:49.152Z,33.05
2019-04-29T10:38:22.331Z,36.23
2019-04-29T10:41:17.838Z,26.90
2019-04-29T10:44:09.915Z,36.95
2019-04-29T10:47:03.440Z,37.60
2019-04-29T10:49:40.407Z,31.62
2019-04-29T10:52:12.603Z,29.07
2019-04-29T10:54:55.358Z,28.67
2019-04-29T10:57:29.271Z,38.73
2019-04-29T11:00:11.987Z,29.67
2019-04-29T11:02:49.484Z,26.25
2019-04-29T11:05:35.439Z,38.02
2019-04-29T11:08:38.246Z,26.75
2019-04-29T11:11:23.031Z,39.10
2019-04-29T11:13:50.464Z,45.03
2019-04-29T11:16:22.892Z,28.85
2019-04-29T11:18:59.721Z,31.55
2019-04-29T11:21:31.170Z,30.37
2019-04-29T11:24:12.258Z,32.35
2019-04-29T11:27:11.562Z,32.93
2019-04-29T11:29:37.020Z,33.13
2019-04-29T11:32:15.250Z,36.38
2019-04-29T11:35:00.455Z,30.05
2019-04-29T11:37:36.112Z,31.42
2019-04-29T11:40:07.785Z,22.73
2019-04-29T11:42:41.754Z,33.88
2019-04-29T11:45:13.708Z,23.10
2019-04-29T11:47:45.154Z,26.35
2019-04-29T11:50:38.696Z,23.35
2019-04-29T11:53:13.452Z,22.98
2019-04-29T11:55:46.972Z,29.32
2019-04-29T11:58:30.481Z,20.10
2019-04-29T12:01:19.963Z,22.45
2019-04-29T12:03:56.660Z,18.73
2019-04-29T12:06:26.416Z,19.87
2019-04-29T12:08:57.693Z,22.45
2019-04-29T12:11:35.832Z,14.53
2019-04-29T12:14:33.733Z,15.88
2019-04-29T12:17:20.256Z,22.98
2019-04-29T12:19:53.743Z,10.95
2019-04-29T12:22:30.700Z,9.63
2019-04-29T12:25:01.979Z,15.50
2019-04-29T12:27:34.654Z,18.90
2019-04-29T12:30:08.742Z,12.28
2019-04-29T12:32:47.123Z,13.20
2019-04-29T12:35:52.098Z,12.85
2019-04-29T12:38:49.652Z,7.92
2019-04-29T12:41:48.917Z,13.78
2019-04-29T12:44:48.199Z,14.70
2019-04-29T12:47:38.646Z,6.47
2019-04-29T12:50:10.459Z,11.30
2019-04-29T12:52:42.118Z,13.65
2019-04-29T12:55:20.188Z,8.28
2019-04-29T12:57:51.272Z,9.23
2019-04-29T13:00:25.614Z,11.40
2019-04-29T13:03:22.100Z,10.10
2019-04-29T13:06:02.418Z,9.43
2019-04-29T13:08:41.371Z,10.93
2019-04-29T13:11:14.717Z,13.53
2019-04-29T13:13:46.709Z,13.13
2019-04-29T13:16:50.839Z,10.43
2019-04-29T13:19:46.073Z,15.03
2019-04-29T13:22:17.274Z,10.40
2019-04-29T13:24:48.578Z,10.80
2019-04-29T13:27:20.754Z,12.80
2019-04-29T13:29:53.425Z,9.68
2019-04-29T13:32:25.339Z,6.25
2019-04-29T13:35:10.993Z,12.93
2019-04-29T13:37:39.411Z,14.78
2019-04-29T13:40:14.264Z,13.60
2019-04-29T13:42:49.156Z,14.63
2019-04-29T13:45:24.806Z,12.80
2019-04-29T13:48:16.440Z,12.50
2019-04-29T13:50:54.901Z,12.88
2019-04-29T13:53:26.751Z,13.90
2019-04-29T13:56:11.892Z,9.90
2019-04-29T13:58:33.116Z,12.65
2019-04-29T14:01:33.671Z,13.32
2019-04-29T14:04:24.643Z,11.45
2019-04-29T14:06:57.168Z,12.80
2019-04-29T14:09:27.008Z,12.53
2019-04-29T14:12:05.643Z,13.83
2019-04-29T14:14:32.648Z,10.70
2019-04-29T14:17:24.111Z,14.43
2019-04-29T14:19:42.337Z,9.23
2019-04-29T14:22:24.728Z,14.13
2019-04-29T14:24:56.174Z,13.95
2019-04-29T14:27:27.432Z,14.03
2019-04-29T14:29:58.648Z,15.43
2019-04-29T14:32:35.983Z,14.85
2019-04-29T14:35:11.855Z,11.70
2019-04-29T14:37:54.968Z,14.23
2019-04-29T14:40:17.513Z,16.70
2019-04-29T14:43:08.958Z,13.90
2019-04-29T14:46:07.175Z,12.37
2019-04-29T14:48:45.594Z,14.98
2019-04-29T14:51:16.983Z,15.25
2019-04-29T14:53:56.336Z,15.70
2019-04-29T14:56:22.578Z,18.12
2019-04-29T14:59:06.062Z,16.05
2019-04-29T15:01:32.058Z,14.55
2019-04-29T15:04:18.055Z,21.33
2019-04-29T15:06:40.951Z,17.17
2019-04-29T15:09:19.682Z,16.32
2019-04-29T15:12:11.229Z,16.75
2019-04-29T15:14:58.933Z,15.88
2019-04-29T15:17:35.468Z,16.23
2019-04-29T15:20:24.946Z,14.00
2019-04-29T15:22:53.871Z,18.30
2019-04-29T15:25:25.322Z,16.73
2019-04-29T15:27:56.748Z,11.85
2019-04-29T15:30:31.686Z,16.45
2019-04-29T15:33:01.221Z,18.20
2019-04-29T15:35:33.016Z,16.97
2019-04-29T15:38:06.617Z,16.17
2019-04-29T15:40:43.686Z,17.40
2019-04-29T15:43:17.806Z,16.67
2019-04-29T15:45:50.746Z,19.52
2019-04-29T15:48:22.240Z,16.87
2019-04-29T15:50:53.484Z,17.65
2019-04-29T15:53:25.852Z,16.73
2019-04-29T15:56:06.524Z,13.18
2019-04-29T15:58:30.640Z,19.98
2019-04-29T16:01:13.181Z,17.62
2019-04-29T16:03:37.632Z,17.87
2019-04-29T16:06:40.206Z,13.93
2019-04-29T16:09:17.598Z,14.63
2019-04-29T16:12:05.048Z,16.02
2019-04-29T16:14:36.500Z,16.62
2019-04-29T16:17:08.053Z,15.15
2019-04-29T16:19:39.270Z,15.53
2019-04-29T16:22:12.864Z,15.43
2019-04-29T16:24:44.109Z,14.47
2019-04-29T16:27:15.742Z,16.60
2019-04-29T16:29:51.893Z,13.05
2019-04-29T16:32:37.530Z,16.85
2019-04-29T16:35:12.347Z,15.48
2019-04-29T16:37:44.199Z,16.15
2019-04-29T16:40:18.087Z,18.62
2019-04-29T16:43:08.595Z,17.02
2019-04-29T16:46:08.937Z,13.05
2019-04-29T16:48:40.273Z,16.32
2019-04-29T16:51:14.635Z,18.42
2019-04-29T16:53:44.749Z,15.78
2019-04-29T16:56:16.538Z,15.43
2019-04-29T16:58:48.897Z,15.95
2019-04-29T17:01:20.635Z,14.58
2019-04-29T17:03:51.918Z,17.10
2019-04-29T17:06:23.538Z,15.88
2019-04-29T17:09:13.354Z,17.37
2019-04-29T17:11:50.376Z,15.40
2019-04-29T17:14:18.633Z,14.68
2019-04-29T17:16:49.931Z,12.68
2019-04-29T17:19:21.231Z,9.38
2019-04-29T17:21:52.771Z,19.92
2019-04-29T17:24:24.329Z,15.53
2019-04-29T17:27:23.688Z,13.15
2019-04-29T17:30:10.320Z,15.03
2019-04-29T17:32:51.647Z,13.55
2019-04-29T17:35:36.931Z,12.50
2019-04-29T17:38:12.466Z,15.63
2019-04-29T17:40:50.894Z,14.40
2019-04-29T17:43:38.264Z,15.15
2019-04-29T17:46:29.606Z,17.23
2019-04-29T17:49:13.835Z,13.80
2019-04-29T17:51:45.918Z,14.50
2019-04-29T17:54:26.059Z,13.08
2019-04-29T17:57:31.504Z,13.40
2019-04-29T18:00:28.723Z,14.45
2019-04-29T18:03:41.353Z,17.50
2019-04-29T18:06:43.590Z,13.22
2019-04-29T18:09:37.262Z,11.90
2019-04-29T18:12:21.707Z,14.58
2019-04-29T18:14:55.218Z,11.22
2019-04-29T18:17:37.539Z,10.15
2019-04-29T18:20:33.404Z,8.90
2019-04-29T18:23:21.438Z,8.40
2019-04-29T18:26:00.511Z,8.23
2019-04-29T18:28:31.943Z,9.53
2019-04-29T18:31:05.786Z,7.72
2019-04-29T18:33:40.211Z,8.68
2019-04-29T18:36:21.558Z,8.30
2019-04-29T18:38:47.362Z,7.22
2019-04-29T18:41:24.578Z,7.75
2019-04-29T18:43:50.896Z,7.20
2019-04-29T18:46:22.243Z,6.62
2019-04-29T18:48:55.906Z,7.95
2019-04-29T18:51:28.758Z,6.28
2019-04-29T18:53:59.745Z,7.45
2019-04-29T18:56:32.246Z,5.65
2019-04-29T18:59:04.682Z,7.90
2019-04-29T19:01:36.022Z,9.60
2019-04-29T19:04:16.717Z,6.70
2019-04-29T19:06:46.014Z,5.92
2019-04-29T19:09:20.800Z,7.05
2019-04-29T19:11:53.221Z,6.12
2019-04-29T19:14:28.196Z,7.72
2019-04-29T19:17:01.226Z,9.15
2019-04-29T19:19:35.271Z,7.15
2019-04-29T19:22:07.690Z,6.22
2019-04-29T19:24:38.195Z,7.33
2019-04-29T19:27:10.113Z,5.85
2019-04-29T19:29:43.254Z,8.25
2019-04-29T19:32:18.906Z,6.30
2019-04-29T19:34:54.884Z,6.20
2019-04-29T19:37:25.381Z,9.10
2019-04-29T19:39:59.622Z,9.83
2019-04-29T19:42:35.638Z,6.30
2019-04-29T19:45:06.263Z,6.20
2019-04-29T19:47:37.462Z,6.33
2019-04-29T19:50:16.650Z,8.48
2019-04-29T19:52:47.244Z,7.17
2019-04-29T19:55:18.547Z,8.38
2019-04-29T19:57:52.071Z,6.20
2019-04-29T20:00:29.078Z,6.92
2019-04-29T20:02:57.276Z,6.22
2019-04-29T20:05:41.406Z,19.48
2019-04-29T20:08:21.593Z,8.75
2019-04-29T20:10:51.272Z,8.50
2019-04-29T20:13:19.661Z,7.33
2019-04-29T20:16:11.004Z,7.22
2019-04-29T20:18:58.821Z,8.13
2019-04-29T20:21:29.765Z,7.12
2019-04-29T20:24:01.191Z,7.50
2019-04-29T20:26:33.194Z,8.28
2019-04-29T20:29:06.993Z,7.95
2019-04-29T20:31:39.115Z,16.17
2019-04-29T20:34:10.657Z,11.33
2019-04-29T20:36:43.129Z,9.20
2019-04-29T20:39:19.591Z,14.00
2019-04-29T20:41:48.946Z,7.12
2019-04-29T20:44:20.693Z,9.15
2019-04-29T20:47:15.687Z,9.40
2019-04-29T20:49:26.281Z,9.75
2019-04-29T20:52:13.448Z,7.97
2019-04-29T20:54:42.867Z,8.38
2019-04-29T20:57:20.411Z,6.10
2019-04-29T20:59:50.363Z,9.53
2019-04-29T21:02:31.471Z,7.10
2019-04-29T21:04:57.778Z,7.78
2019-04-29T21:07:26.963Z,8.78
2019-04-29T21:10:00.032Z,8.05
2019-04-29T21:12:49.439Z,8.23
2019-04-29T21:15:29.376Z,7.40
2019-04-29T21:18:00.564Z,7.10
2019-04-29T21:20:31.773Z,8.58
2019-04-29T21:23:04.252Z,7.83
2019-04-29T21:25:37.137Z,10.93
2019-04-29T21:28:09.164Z,9.78
2019-04-29T21:30:42.697Z,9.23
2019-04-29T21:33:20.005Z,7.40
2019-04-29T21:35:59.360Z,8.75
2019-04-29T21:38:48.642Z,12.93
2019-04-29T21:41:29.237Z,7.75
2019-04-29T21:44:01.891Z,9.53
2019-04-29T21:46:35.102Z,8.45
2019-04-29T21:49:11.716Z,8.33
2019-04-29T21:51:41.837Z,9.38
2019-04-29T21:54:14.209Z,9.50
2019-04-29T21:56:47.936Z,8.93
2019-04-29T21:59:19.511Z,7.60
2019-04-29T22:01:50.687Z,8.93
2019-04-29T22:04:22.107Z,9.85
2019-04-29T22:06:53.415Z,9.35
2019-04-29T22:09:35.865Z,10.82
2019-04-29T22:11:58.882Z,11.28
2019-04-29T22:14:30.638Z,9.08
2019-04-29T22:17:02.321Z,9.13
2019-04-29T22:19:35.080Z,10.35
2019-04-29T22:22:06.851Z,9.20
2019-04-29T22:24:38.608Z,11.75
2019-04-29T22:27:09.893Z,9.63
2019-04-29T22:29:42.371Z,11.03
2019-04-29T22:32:15.067Z,10.82
2019-04-29T22:34:49.490Z,11.48
2019-04-29T22:37:20.808Z,11.10
2019-04-29T22:39:53.237Z,9.48
2019-04-29T22:42:43.322Z,9.53
2019-04-29T22:45:16.174Z,10.35
2019-04-29T22:48:16.340Z,13.22
2019-04-29T22:50:40.156Z,12.82
2019-04-29T22:53:11.333Z,10.72
2019-04-29T22:55:42.869Z,10.82
2019-04-29T22:58:15.112Z,10.25
2019-04-29T23:00:46.558Z,12.82
2019-04-29T23:03:17.792Z,13.78
2019-04-29T23:05:49.004Z,11.18
2019-04-29T23:08:20.152Z,14.50
2019-04-29T23:10:51.381Z,13.70
2019-04-29T23:13:22.580Z,14.47
2019-04-29T23:16:01.087Z,14.20
2019-04-29T23:18:29.135Z,13.85
2019-04-29T23:21:16.283Z,15.85
2019-04-29T23:23:49.698Z,14.18
2019-04-29T23:26:21.182Z,15.70
2019-04-29T23:28:52.807Z,17.70
2019-04-29T23:31:27.208Z,15.23
2019-04-29T23:33:57.049Z,16.60
2019-04-29T23:36:28.376Z,17.42
2019-04-29T23:38:59.642Z,16.97
2019-04-29T23:41:33.004Z,16.20
2019-04-29T23:44:08.742Z,19.70
2019-04-29T23:46:37.597Z,17.90
2019-04-29T23:49:08.908Z,19.57
2019-04-29T23:51:40.274Z,19.25
2019-04-29T23:54:11.484Z,19.42
2019-04-29T23:57:16.421Z,18.85
